createdAt,value
2022-08-28T00:00:40.764Z,94.43
2022-08-28T00:03:09.570Z,94.58
2022-08-28T00:05:39.916Z,94.73
2022-08-28T00:08:09.002Z,94.86
2022-08-28T00:10:39.217Z,94.89
2022-08-28T00:13:08.327Z,94.93
2022-08-28T00:15:39.019Z,94.99
2022-08-28T00:18:08.277Z,95.06
2022-08-28T00:20:37.231Z,95.05
2022-08-28T00:23:07.541Z,95.13
2022-08-28T00:25:36.245Z,95.20
2022-08-28T00:28:08.793Z,95.13
2022-08-28T00:30:39.570Z,95.15
2022-08-28T00:33:10.691Z,95.21
2022-08-28T00:35:40.045Z,95.18
2022-08-28T00:38:10.576Z,95.16
2022-08-28T00:40:39.338Z,95.23
2022-08-28T00:43:09.296Z,95.23
2022-08-28T00:45:40.058Z,95.22
2022-08-28T00:48:09.804Z,95.21
2022-08-28T00:50:52.195Z,95.19
2022-08-28T00:53:22.457Z,95.16
2022-08-28T00:55:55.038Z,94.93
2022-08-28T00:58:23.072Z,94.55
2022-08-28T01:00:51.127Z,94.37
2022-08-28T01:03:19.162Z,94.39
2022-08-28T01:05:49.265Z,94.37
2022-08-28T01:08:18.581Z,94.19
2022-08-28T01:10:51.429Z,94.09
2022-08-28T01:13:19.742Z,93.72
2022-08-28T01:15:49.341Z,93.76
2022-08-28T01:18:17.821Z,93.68
2022-08-28T01:20:50.351Z,93.33
2022-08-28T01:23:24.558Z,92.94
2022-08-28T01:25:53.929Z,92.86
2022-08-28T01:28:21.934Z,92.35
2022-08-28T01:30:50.285Z,92.02
2022-08-28T01:33:19.569Z,91.88
2022-08-28T01:35:56.110Z,91.72
2022-08-28T01:38:26.935Z,91.65
2022-08-28T01:40:57.774Z,91.71
2022-08-28T01:43:27.631Z,91.88
2022-08-28T01:46:00.085Z,91.82
2022-08-28T01:48:29.445Z,91.74
2022-08-28T01:50:57.441Z,91.61
2022-08-28T01:53:33.078Z,91.72
2022-08-28T01:56:05.620Z,91.73
2022-08-28T01:58:38.114Z,91.98
2022-08-28T02:01:11.566Z,92.08
2022-08-28T02:03:39.841Z,92.34
2022-08-28T02:06:08.011Z,92.35
2022-08-28T02:08:36.807Z,92.36
2022-08-28T02:11:08.770Z,92.41
2022-08-28T02:13:38.094Z,92.50
2022-08-28T02:16:08.816Z,92.44
2022-08-28T02:18:37.812Z,92.58
2022-08-28T02:21:06.044Z,92.60
2022-08-28T02:23:34.148Z,92.60
2022-08-28T02:26:02.099Z,92.61
2022-08-28T02:28:31.354Z,92.42
2022-08-28T02:30:59.712Z,92.38
2022-08-28T02:33:27.856Z,92.24
2022-08-28T02:35:56.363Z,92.09
2022-08-28T02:38:24.412Z,92.04
2022-08-28T02:40:52.810Z,92.08
2022-08-28T02:43:20.836Z,91.98
2022-08-28T02:45:50.382Z,91.91
2022-08-28T02:48:18.547Z,91.84
2022-08-28T02:50:47.128Z,91.83
2022-08-28T02:53:15.216Z,91.80
2022-08-28T02:55:43.173Z,91.83
2022-08-28T02:58:11.402Z,91.90
2022-08-28T03:00:40.124Z,91.77
2022-08-28T03:03:09.448Z,91.79
2022-08-28T03:05:37.429Z,91.86
2022-08-28T03:08:05.746Z,91.74
2022-08-28T03:10:33.807Z,91.77
2022-08-28T03:13:01.806Z,91.60
2022-08-28T03:15:29.763Z,91.79
2022-08-28T03:17:57.725Z,91.72
2022-08-28T03:20:27.064Z,91.78
2022-08-28T03:23:13.118Z,91.63
2022-08-28T03:25:41.136Z,91.62
2022-08-28T03:28:09.141Z,91.65
2022-08-28T03:30:37.405Z,91.63
2022-08-28T03:33:05.416Z,91.47
2022-08-28T03:35:34.943Z,91.32
2022-08-28T03:38:03.110Z,91.33
2022-08-28T03:40:32.256Z,91.49
2022-08-28T03:43:00.392Z,91.43
2022-08-28T03:45:28.540Z,91.17
2022-08-28T03:47:56.503Z,91.15
2022-08-28T03:50:25.849Z,91.20
2022-08-28T03:52:59.238Z,91.14
2022-08-28T03:55:27.240Z,91.20
2022-08-28T03:57:55.218Z,91.42
2022-08-28T04:00:23.417Z,91.21
2022-08-28T04:02:51.468Z,91.36
2022-08-28T04:05:19.617Z,91.40
2022-08-28T04:07:48.209Z,91.42
2022-08-28T04:10:17.724Z,91.34
2022-08-28T04:12:45.684Z,91.22
2022-08-28T04:15:15.171Z,91.11
2022-08-28T04:17:43.339Z,91.06
2022-08-28T04:20:12.118Z,91.40
2022-08-28T04:22:40.513Z,91.75
2022-08-28T04:25:09.160Z,91.84
2022-08-28T04:27:38.475Z,91.87
2022-08-28T04:30:09.916Z,91.99
2022-08-28T04:32:39.399Z,92.14
2022-08-28T04:35:09.643Z,92.15
2022-08-28T04:37:39.066Z,92.25
2022-08-28T04:40:09.810Z,92.32
2022-08-28T04:42:39.989Z,92.31
2022-08-28T04:45:08.533Z,92.29
2022-08-28T04:47:37.941Z,92.63
2022-08-28T04:50:07.725Z,92.54
2022-08-28T04:52:35.680Z,92.61
2022-08-28T04:55:04.183Z,92.72
2022-08-28T04:57:35.767Z,92.79
2022-08-28T05:00:09.163Z,92.91
2022-08-28T05:02:37.229Z,92.98
2022-08-28T05:05:05.957Z,93.07
2022-08-28T05:07:34.885Z,93.20
2022-08-28T05:10:03.879Z,93.33
2022-08-28T05:12:32.416Z,93.39
2022-08-28T05:15:00.421Z,93.60
2022-08-28T05:17:32.244Z,93.62
2022-08-28T05:20:00.213Z,93.70
2022-08-28T05:22:28.915Z,93.80
2022-08-28T05:24:57.036Z,93.88
2022-08-28T05:27:25.732Z,93.86
2022-08-28T05:29:56.311Z,93.78
2022-08-28T05:32:26.694Z,93.67
2022-08-28T05:34:56.021Z,93.59
2022-08-28T05:37:24.115Z,93.46
2022-08-28T05:39:52.104Z,93.19
2022-08-28T05:42:20.263Z,93.25
2022-08-28T05:44:48.322Z,92.90
2022-08-28T05:47:22.655Z,92.73
2022-08-28T05:49:50.842Z,92.57
2022-08-28T05:52:21.813Z,92.41
2022-08-28T05:54:49.873Z,92.03
2022-08-28T05:57:18.047Z,92.03
2022-08-28T05:59:46.011Z,92.00
2022-08-28T06:02:14.029Z,91.71
2022-08-28T06:04:42.075Z,91.62
2022-08-28T06:07:12.131Z,91.52
2022-08-28T06:09:41.455Z,91.34
2022-08-28T06:12:10.448Z,91.44
2022-08-28T06:14:40.156Z,91.50
2022-08-28T06:17:09.100Z,91.23
2022-08-28T06:19:41.379Z,91.20
2022-08-28T06:22:12.162Z,91.15
2022-08-28T06:24:42.207Z,91.22
2022-08-28T06:27:10.221Z,90.91
2022-08-28T06:29:39.807Z,90.66
2022-08-28T06:32:09.114Z,90.42
2022-08-28T06:34:37.263Z,90.30
2022-08-28T06:37:05.412Z,90.00
2022-08-28T06:39:33.414Z,89.92
2022-08-28T06:42:02.994Z,89.68
2022-08-28T06:44:32.292Z,89.37
2022-08-28T06:47:00.822Z,89.28
2022-08-28T06:49:29.005Z,89.30
2022-08-28T06:51:57.184Z,88.96
2022-08-28T06:54:25.284Z,88.79
2022-08-28T06:56:54.212Z,88.07
2022-08-28T06:59:23.563Z,87.84
2022-08-28T07:01:52.910Z,87.67
2022-08-28T07:04:21.088Z,87.58
2022-08-28T07:06:54.134Z,87.17
2022-08-28T07:09:23.226Z,87.28
2022-08-28T07:11:51.363Z,87.23
2022-08-28T07:14:19.385Z,87.46
2022-08-28T07:16:48.700Z,86.92
2022-08-28T07:19:17.020Z,87.26
2022-08-28T07:21:46.734Z,87.13
2022-08-28T07:24:16.118Z,86.69
2022-08-28T07:26:44.892Z,86.85
2022-08-28T07:29:13.122Z,86.25
2022-08-28T07:31:42.765Z,86.45
2022-08-28T07:34:13.944Z,85.88
2022-08-28T07:36:42.790Z,85.96
2022-08-28T07:39:13.162Z,86.55
2022-08-28T07:41:43.037Z,86.07
2022-08-28T07:44:31.579Z,86.19
2022-08-28T07:47:05.875Z,85.30
2022-08-28T07:49:36.314Z,84.69
2022-08-28T07:52:05.012Z,84.23
2022-08-28T07:54:33.263Z,84.79
2022-08-28T07:57:02.705Z,84.56
2022-08-28T07:59:36.585Z,83.94
2022-08-28T08:02:05.503Z,83.70
2022-08-28T08:04:35.453Z,84.06
2022-08-28T08:07:04.497Z,83.53
2022-08-28T08:09:33.866Z,83.42
2022-08-28T08:12:01.902Z,82.27
2022-08-28T08:14:29.982Z,82.40
2022-08-28T08:17:02.102Z,82.27
2022-08-28T08:19:30.107Z,81.86
2022-08-28T08:21:59.627Z,82.05
2022-08-28T08:24:30.206Z,82.24
2022-08-28T08:27:01.209Z,81.80
2022-08-28T08:29:31.802Z,82.66
2022-08-28T08:32:05.552Z,81.45
2022-08-28T08:34:36.341Z,82.34
2022-08-28T08:37:06.182Z,81.53
2022-08-28T08:39:35.025Z,81.37
2022-08-28T08:42:05.424Z,81.46
2022-08-28T08:44:35.331Z,81.92
2022-08-28T08:47:13.808Z,81.60
2022-08-28T08:49:44.905Z,81.19
2022-08-28T08:52:30.201Z,81.08
2022-08-28T08:55:07.965Z,81.31
2022-08-28T08:57:38.290Z,80.97
2022-08-28T09:00:11.220Z,81.61
2022-08-28T09:02:46.629Z,81.91
2022-08-28T09:05:18.799Z,81.39
2022-08-28T09:07:56.576Z,81.49
2022-08-28T09:10:26.381Z,82.55
2022-08-28T09:12:58.735Z,81.58
2022-08-28T09:15:31.326Z,82.02
2022-08-28T09:18:09.830Z,81.75
2022-08-28T09:20:37.966Z,82.13
2022-08-28T09:23:12.809Z,81.60
2022-08-28T09:25:54.653Z,81.23
2022-08-28T09:28:25.710Z,81.33
2022-08-28T09:31:05.657Z,82.15
2022-08-28T09:33:41.913Z,81.36
2022-08-28T09:36:27.361Z,81.35
2022-08-28T09:39:12.347Z,81.06
2022-08-28T09:42:10.789Z,81.71
2022-08-28T09:44:54.650Z,81.66
2022-08-28T09:47:46.480Z,81.31
2022-08-28T09:50:33.857Z,81.21
2022-08-28T09:53:18.317Z,82.27
2022-08-28T09:55:54.495Z,81.53
2022-08-28T09:58:22.782Z,81.21
2022-08-28T10:00:56.285Z,82.15
2022-08-28T10:03:27.929Z,81.64
2022-08-28T10:06:04.414Z,81.75
2022-08-28T10:08:52.076Z,81.42
2022-08-28T10:11:26.390Z,82.35
2022-08-28T10:14:04.048Z,82.06
2022-08-28T10:16:44.796Z,82.19
2022-08-28T10:19:21.089Z,81.90
2022-08-28T10:21:52.482Z,82.06
2022-08-28T10:24:31.316Z,82.34
2022-08-28T10:27:10.092Z,82.79
2022-08-28T10:29:49.583Z,83.34
2022-08-28T10:32:31.969Z,82.76
2022-08-28T10:35:14.858Z,82.32
2022-08-28T10:37:51.017Z,82.21
2022-08-28T10:40:23.946Z,82.12
2022-08-28T10:42:57.927Z,82.24
2022-08-28T10:45:27.216Z,82.48
2022-08-28T10:47:58.275Z,81.91
2022-08-28T10:50:29.497Z,82.23
2022-08-28T10:53:01.188Z,81.64
2022-08-28T10:55:34.584Z,82.17
2022-08-28T10:58:21.524Z,81.91
2022-08-28T11:00:53.602Z,81.44
2022-08-28T11:03:34.383Z,80.39
2022-08-28T11:06:05.825Z,81.02
2022-08-28T11:08:36.820Z,80.64
2022-08-28T11:11:06.706Z,80.58
2022-08-28T11:13:56.213Z,80.10
2022-08-28T11:16:26.628Z,79.47
2022-08-28T11:19:17.425Z,79.75
2022-08-28T11:21:48.405Z,80.10
2022-08-28T11:24:29.552Z,80.54
2022-08-28T11:27:06.539Z,80.18
2022-08-28T11:30:06.455Z,79.65
2022-08-28T11:32:41.511Z,79.88
2022-08-28T11:35:51.012Z,78.34
2022-08-28T11:39:12.930Z,77.31
2022-08-28T11:42:22.026Z,76.51
2022-08-28T11:44:51.560Z,75.95
2022-08-28T11:47:44.151Z,74.58
2022-08-28T11:50:32.419Z,74.59
2022-08-28T11:53:16.292Z,73.96
2022-08-28T11:56:10.268Z,74.27
2022-08-28T11:58:43.470Z,73.17
2022-08-28T12:01:14.226Z,72.06
2022-08-28T12:03:44.630Z,72.19
2022-08-28T12:06:14.422Z,71.57
2022-08-28T12:09:09.779Z,71.94
2022-08-28T12:12:00.612Z,71.05
2022-08-28T12:14:59.317Z,71.17
2022-08-28T12:17:49.320Z,71.59
2022-08-28T12:20:32.317Z,71.05
2022-08-28T12:23:02.529Z,71.13
2022-08-28T12:25:35.166Z,70.54
2022-08-28T12:28:12.963Z,70.24
2022-08-28T12:30:44.983Z,70.21
2022-08-28T12:33:19.757Z,69.56
2022-08-28T12:35:47.793Z,70.25
2022-08-28T12:38:20.276Z,69.94
2022-08-28T12:40:53.552Z,70.21
2022-08-28T12:43:29.499Z,69.89
2022-08-28T12:45:58.900Z,69.30
2022-08-28T12:48:34.003Z,68.99
2022-08-28T12:51:05.608Z,69.26
2022-08-28T12:53:41.542Z,69.32
2022-08-28T12:56:10.982Z,70.48
2022-08-28T12:58:40.577Z,70.31
2022-08-28T13:01:11.442Z,70.23
2022-08-28T13:03:47.099Z,70.69
2022-08-28T13:06:15.609Z,69.97
2022-08-28T13:08:43.667Z,70.31
2022-08-28T13:11:19.547Z,69.85
2022-08-28T13:13:50.040Z,71.54
2022-08-28T13:16:36.864Z,70.30
2022-08-28T13:19:14.990Z,71.07
2022-08-28T13:21:58.444Z,71.19
2022-08-28T13:24:30.029Z,71.27
2022-08-28T13:27:06.292Z,71.77
2022-08-28T13:29:37.142Z,71.18
2022-08-28T13:32:07.121Z,71.60
2022-08-28T13:34:37.669Z,70.04
2022-08-28T13:37:20.113Z,70.86
2022-08-28T13:39:48.692Z,72.26
2022-08-28T13:42:17.896Z,71.65
2022-08-28T13:44:48.569Z,71.49
2022-08-28T13:47:17.268Z,70.71
2022-08-28T13:49:47.339Z,71.15
2022-08-28T13:52:15.600Z,70.84
2022-08-28T13:54:45.490Z,71.37
2022-08-28T13:57:14.397Z,70.74
2022-08-28T13:59:42.847Z,71.77
2022-08-28T14:02:31.640Z,71.13
2022-08-28T14:05:01.390Z,71.84
2022-08-28T14:07:29.998Z,71.61
2022-08-28T14:09:58.259Z,71.28
2022-08-28T14:12:33.137Z,72.28
2022-08-28T14:15:02.471Z,72.48
2022-08-28T14:17:30.529Z,72.02
2022-08-28T14:19:59.838Z,71.86
2022-08-28T14:22:30.891Z,71.89
2022-08-28T14:24:58.984Z,72.67
2022-08-28T14:27:27.072Z,71.62
2022-08-28T14:29:55.155Z,72.53
2022-08-28T14:32:23.248Z,73.22
2022-08-28T14:34:51.491Z,71.68
2022-08-28T14:37:19.691Z,72.08
2022-08-28T14:39:50.535Z,72.43
2022-08-28T14:42:19.314Z,73.04
2022-08-28T14:44:47.399Z,73.20
2022-08-28T14:47:15.965Z,72.99
2022-08-28T14:49:44.126Z,72.51
2022-08-28T14:52:12.462Z,72.19
2022-08-28T14:54:40.463Z,71.05
2022-08-28T14:57:11.870Z,70.81
2022-08-28T14:59:39.903Z,70.94
2022-08-28T15:02:08.875Z,68.57
2022-08-28T15:04:38.049Z,68.72
2022-08-28T15:07:10.519Z,68.32
2022-08-28T15:09:40.947Z,68.41
2022-08-28T15:12:11.291Z,68.04
2022-08-28T15:14:39.308Z,66.00
2022-08-28T15:17:08.601Z,67.10
2022-08-28T15:19:36.881Z,67.08
2022-08-28T15:22:05.572Z,66.36
2022-08-28T15:24:34.634Z,65.90
2022-08-28T15:27:03.261Z,66.59
2022-08-28T15:29:32.651Z,65.71
2022-08-28T15:32:01.534Z,65.81
2022-08-28T15:34:29.793Z,66.72
2022-08-28T15:36:58.810Z,65.98
2022-08-28T15:39:46.463Z,64.13
2022-08-28T15:42:15.123Z,64.70
2022-08-28T15:44:44.579Z,62.80
2022-08-28T15:47:13.762Z,63.12
2022-08-28T15:49:43.640Z,62.19
2022-08-28T15:52:18.603Z,62.39
2022-08-28T15:54:46.580Z,61.75
2022-08-28T15:57:14.577Z,62.55
2022-08-28T15:59:49.761Z,61.39
2022-08-28T16:02:19.142Z,62.56
2022-08-28T16:04:47.260Z,61.20
2022-08-28T16:07:15.590Z,62.55
2022-08-28T16:09:43.602Z,63.61
2022-08-28T16:12:11.595Z,62.45
2022-08-28T16:14:39.716Z,61.46
2022-08-28T16:17:11.038Z,61.87
2022-08-28T16:19:39.653Z,62.48
2022-08-28T16:22:07.775Z,62.00
2022-08-28T16:24:36.141Z,62.66
2022-08-28T16:27:04.392Z,62.01
2022-08-28T16:29:34.892Z,62.77
2022-08-28T16:32:05.195Z,63.81
2022-08-28T16:34:35.039Z,62.79
2022-08-28T16:37:05.662Z,62.57
2022-08-28T16:39:36.091Z,61.73
2022-08-28T16:42:05.208Z,61.81
2022-08-28T16:44:33.503Z,62.45
2022-08-28T16:47:01.821Z,61.61
2022-08-28T16:49:30.289Z,61.83
2022-08-28T16:51:59.750Z,62.61
2022-08-28T16:54:27.771Z,62.45
2022-08-28T16:56:55.739Z,62.42
2022-08-28T16:59:24.228Z,62.44
2022-08-28T17:01:53.869Z,63.54
2022-08-28T17:04:22.891Z,63.07
2022-08-28T17:06:50.927Z,63.83
2022-08-28T17:09:21.100Z,64.82
2022-08-28T17:11:51.786Z,64.25
2022-08-28T17:14:20.855Z,64.72
2022-08-28T17:16:49.478Z,64.48
2022-08-28T17:19:17.935Z,65.33
2022-08-28T17:22:03.763Z,65.57
2022-08-28T17:24:33.144Z,66.07
2022-08-28T17:27:05.435Z,66.44
2022-08-28T17:29:34.134Z,66.91
2022-08-28T17:32:02.210Z,67.10
2022-08-28T17:34:30.752Z,67.35
2022-08-28T17:36:58.883Z,68.74
2022-08-28T17:39:26.983Z,68.01
2022-08-28T17:41:56.630Z,68.60
2022-08-28T17:44:24.691Z,69.38
2022-08-28T17:46:52.789Z,69.08
2022-08-28T17:49:22.312Z,69.17
2022-08-28T17:51:51.093Z,69.86
2022-08-28T17:54:22.575Z,70.32
2022-08-28T17:56:51.012Z,70.84
2022-08-28T17:59:21.140Z,71.61
2022-08-28T18:01:49.844Z,72.92
2022-08-28T18:04:23.914Z,72.65
2022-08-28T18:06:54.327Z,73.37
2022-08-28T18:09:22.976Z,73.92
2022-08-28T18:11:51.546Z,74.03
2022-08-28T18:14:21.269Z,74.95
2022-08-28T18:16:49.611Z,74.97
2022-08-28T18:19:17.777Z,75.38
2022-08-28T18:21:46.229Z,75.08
2022-08-28T18:24:14.433Z,75.64
2022-08-28T18:26:43.385Z,76.56
2022-08-28T18:29:11.489Z,76.72
2022-08-28T18:31:41.356Z,77.10
2022-08-28T18:34:10.364Z,77.20
2022-08-28T18:36:39.924Z,77.13
2022-08-28T18:39:08.260Z,77.40
2022-08-28T18:41:43.790Z,77.74
2022-08-28T18:44:14.100Z,77.96
2022-08-28T18:46:44.201Z,78.41
2022-08-28T18:49:12.789Z,78.70
2022-08-28T18:51:43.066Z,78.55
2022-08-28T18:54:11.287Z,78.79
2022-08-28T18:56:40.857Z,79.36
2022-08-28T18:59:09.386Z,79.49
2022-08-28T19:01:38.190Z,80.21
2022-08-28T19:04:07.761Z,80.87
2022-08-28T19:06:36.772Z,80.59
2022-08-28T19:09:06.451Z,81.13
2022-08-28T19:11:35.828Z,80.47
2022-08-28T19:14:04.270Z,80.67
2022-08-28T19:16:32.669Z,79.91
2022-08-28T19:19:01.487Z,79.85
2022-08-28T19:21:31.469Z,79.30
2022-08-28T19:23:59.469Z,79.67
2022-08-28T19:26:28.717Z,78.83
2022-08-28T19:28:56.986Z,78.82
2022-08-28T19:31:26.193Z,78.44
2022-08-28T19:33:54.677Z,77.91
2022-08-28T19:36:22.876Z,77.85
2022-08-28T19:38:52.184Z,77.82
2022-08-28T19:41:20.158Z,77.92
2022-08-28T19:43:48.163Z,77.45
2022-08-28T19:46:19.611Z,77.50
2022-08-28T19:48:48.428Z,77.16
2022-08-28T19:51:22.808Z,77.06
2022-08-28T19:53:57.867Z,77.17
2022-08-28T19:56:27.747Z,77.38
2022-08-28T19:58:58.505Z,77.87
2022-08-28T20:01:29.341Z,77.95
2022-08-28T20:03:58.129Z,77.99
2022-08-28T20:06:26.409Z,77.85
2022-08-28T20:08:55.841Z,77.68
2022-08-28T20:11:30.295Z,77.76
2022-08-28T20:14:06.576Z,77.90
2022-08-28T20:16:37.244Z,78.13
2022-08-28T20:19:08.063Z,78.14
2022-08-28T20:21:37.606Z,78.67
2022-08-28T20:24:09.940Z,78.84
2022-08-28T20:26:38.257Z,79.15
2022-08-28T20:29:07.533Z,79.61
2022-08-28T20:31:36.147Z,80.00
2022-08-28T20:34:04.916Z,80.76
2022-08-28T20:36:33.352Z,81.28
2022-08-28T20:39:04.382Z,81.75
2022-08-28T20:41:34.480Z,82.42
2022-08-28T20:44:04.955Z,82.92
2022-08-28T20:46:39.845Z,83.29
2022-08-28T20:49:09.709Z,83.61
2022-08-28T20:51:55.613Z,83.85
2022-08-28T20:54:27.515Z,84.12
2022-08-28T20:57:01.928Z,84.47
2022-08-28T20:59:39.511Z,84.88
2022-08-28T21:02:10.361Z,85.09
2022-08-28T21:04:39.122Z,85.11
2022-08-28T21:07:08.107Z,85.09
2022-08-28T21:10:03.829Z,85.02
2022-08-28T21:12:25.485Z,85.09
2022-08-28T21:14:53.948Z,84.95
2022-08-28T21:17:29.399Z,84.88
2022-08-28T21:19:59.179Z,84.78
2022-08-28T21:22:27.227Z,84.74
2022-08-28T21:24:55.460Z,84.42
2022-08-28T21:27:25.560Z,84.40
2022-08-28T21:29:56.393Z,84.38
2022-08-28T21:32:24.580Z,84.42
2022-08-28T21:34:53.083Z,84.17
2022-08-28T21:37:21.198Z,84.14
2022-08-28T21:39:49.309Z,84.13
2022-08-28T21:42:17.306Z,83.77
2022-08-28T21:44:51.946Z,83.61
2022-08-28T21:47:21.518Z,83.72
2022-08-28T21:49:50.389Z,83.79
2022-08-28T21:52:19.192Z,83.66
2022-08-28T21:54:47.245Z,83.63
2022-08-28T21:57:15.510Z,83.52
2022-08-28T21:59:43.835Z,83.63
2022-08-28T22:02:13.236Z,83.68
2022-08-28T22:04:41.368Z,83.75
2022-08-28T22:07:11.174Z,83.82
2022-08-28T22:09:39.355Z,83.90
2022-08-28T22:12:09.035Z,84.10
2022-08-28T22:14:37.495Z,84.42
2022-08-28T22:17:11.209Z,84.64
2022-08-28T22:19:41.296Z,85.27
2022-08-28T22:22:27.171Z,85.83
2022-08-28T22:24:55.209Z,85.88
2022-08-28T22:27:23.583Z,85.94
2022-08-28T22:29:52.078Z,85.99
2022-08-28T22:32:25.390Z,86.03
2022-08-28T22:34:55.718Z,85.83
2022-08-28T22:37:23.950Z,85.54
2022-08-28T22:39:52.161Z,85.42
2022-08-28T22:42:20.158Z,85.34
2022-08-28T22:44:48.564Z,85.18
2022-08-28T22:47:16.544Z,85.15
2022-08-28T22:49:47.244Z,85.11
2022-08-28T22:52:17.202Z,85.34
2022-08-28T22:54:45.603Z,85.57
2022-08-28T22:57:14.951Z,85.51
2022-08-28T22:59:42.994Z,85.61
2022-08-28T23:02:12.157Z,85.57
2022-08-28T23:04:40.629Z,85.82
2022-08-28T23:07:08.771Z,85.93
2022-08-28T23:09:38.437Z,85.95
2022-08-28T23:12:08.364Z,85.99
2022-08-28T23:14:36.629Z,85.93
2022-08-28T23:17:04.752Z,86.08
2022-08-28T23:19:32.767Z,86.20
2022-08-28T23:22:01.235Z,86.08
2022-08-28T23:24:31.356Z,86.27
2022-08-28T23:27:19.435Z,86.38
2022-08-28T23:29:53.195Z,86.48
2022-08-28T23:32:21.761Z,86.52
2022-08-28T23:34:50.247Z,86.81
2022-08-28T23:37:18.704Z,86.97
2022-08-28T23:39:46.852Z,87.12
2022-08-28T23:42:17.084Z,87.22
2022-08-28T23:44:46.288Z,86.89
2022-08-28T23:47:14.440Z,86.86
2022-08-28T23:49:42.931Z,87.00
2022-08-28T23:52:11.722Z,87.01
2022-08-28T23:54:40.390Z,87.06
2022-08-28T23:57:11.021Z,87.12
2022-08-28T23:59:40.479Z,87.01
